createdAt,value
2022-12-12T00:05:02.364Z,25.3
2022-12-12T00:10:40.948Z,24.8
2022-12-12T00:16:19.236Z,24.3
2022-12-12T00:22:01.694Z,24.1
2022-12-12T00:27:45.713Z,23.8
2022-12-12T00:33:29.871Z,24.3
2022-12-12T00:39:07.562Z,26
2022-12-12T00:44:30.301Z,26.9
2022-12-12T00:49:53.372Z,26.9
2022-12-12T00:55:31.352Z,25.7
2022-12-12T01:00:38.305Z,25
2022-12-12T01:06:21.640Z,24.4
2022-12-12T01:11:59.026Z,24.1
2022-12-12T01:17:21.216Z,23.9
2022-12-12T01:22:58.643Z,24.1
2022-12-12T01:28:20.815Z,24.9
2022-12-12T01:34:05.823Z,26.4
2022-12-12T01:39:27.886Z,27.1
2022-12-12T01:45:05.684Z,26.8
2022-12-12T01:50:51.995Z,25.3
2022-12-12T01:56:29.032Z,24.8
2022-12-12T02:01:20.700Z,24.3
2022-12-12T02:06:43.598Z,24
2022-12-12T02:12:22.030Z,24.6
2022-12-12T02:18:03.479Z,26.3
2022-12-12T02:23:41.255Z,26.2
2022-12-12T02:29:24.171Z,25.8
2022-12-12T02:35:02.012Z,25.9
2022-12-12T02:40:39.656Z,27
2022-12-12T02:46:17.231Z,27
2022-12-12T02:51:54.709Z,25.6
2022-12-12T02:57:17.243Z,25.1
2022-12-12T03:02:55.479Z,24.6
2022-12-12T03:08:21.080Z,24.3
2022-12-12T03:13:58.969Z,23.9
2022-12-12T03:19:37.376Z,24.4
2022-12-12T03:25:00.228Z,25.4
2022-12-12T03:30:38.041Z,26.6
2022-12-12T03:36:16.302Z,27
2022-12-12T03:41:53.089Z,26.1
2022-12-12T03:47:30.749Z,25.2
2022-12-12T03:52:53.200Z,24.6
2022-12-12T03:58:15.301Z,24.2
2022-12-12T04:03:54.407Z,24.4
2022-12-12T04:09:32.424Z,25.5
2022-12-12T04:14:39.363Z,26.8
2022-12-12T04:19:46.981Z,27.1
2022-12-12T04:24:57.106Z,26.7
2022-12-12T04:30:35.190Z,25.3
2022-12-12T04:35:57.385Z,24.9
2022-12-12T04:41:35.138Z,24.4
2022-12-12T04:46:57.069Z,24.1
2022-12-12T04:52:21.540Z,23.8
2022-12-12T04:58:01.556Z,24.4
2022-12-12T05:03:44.649Z,25.8
2022-12-12T05:09:22.966Z,26.7
2022-12-12T05:14:44.781Z,26.9
2022-12-12T05:20:27.112Z,26.7
2022-12-12T05:25:50.047Z,25.1
2022-12-12T05:31:19.485Z,24.8
2022-12-12T05:36:57.278Z,24.2
2022-12-12T05:42:34.764Z,24.2
2022-12-12T05:48:12.484Z,24.9
2022-12-12T05:53:58.760Z,25.1
2022-12-12T05:59:21.493Z,25.1
2022-12-12T06:04:58.646Z,25.5
2022-12-12T06:10:39.530Z,26.8
2022-12-12T06:15:47.488Z,27
2022-12-12T06:21:10.760Z,26.3
2022-12-12T06:26:48.746Z,25.2
2022-12-12T06:32:33.400Z,24.7
2022-12-12T06:38:11.475Z,24.2
2022-12-12T06:43:54.563Z,24.4
2022-12-12T06:49:33.064Z,25.3
2022-12-12T06:54:38.849Z,26.6
2022-12-12T07:00:24.007Z,27
2022-12-12T07:06:06.803Z,26.3
2022-12-12T07:11:45.087Z,25.2
2022-12-12T07:17:24.300Z,24.6
2022-12-12T07:23:02.578Z,24.2
2022-12-12T07:37:01.014Z,25.9
2022-12-12T07:42:41.607Z,27
2022-12-12T07:47:55.628Z,26.9
2022-12-12T07:53:33.455Z,25.5
2022-12-12T07:59:11.320Z,25
2022-12-12T08:04:51.665Z,24.4
2022-12-12T08:10:38.243Z,24.1
2022-12-12T08:16:17.415Z,24.5
2022-12-12T08:21:59.043Z,26.2
2022-12-12T08:27:37.402Z,26.9
2022-12-12T08:33:03.566Z,26.8
2022-12-12T08:38:42.257Z,25.3
2022-12-12T08:44:21.641Z,24.9
2022-12-12T08:50:02.255Z,24.3
2022-12-12T08:55:39.969Z,24.1
2022-12-12T09:01:18.951Z,24.9
2022-12-12T09:07:08.588Z,26.5
2022-12-12T09:12:46.804Z,27
2022-12-12T09:18:24.895Z,26.3
2022-12-12T09:23:50.504Z,25.2
2022-12-12T09:29:33.812Z,24.7
2022-12-12T09:35:12.483Z,24.3
2022-12-12T09:40:50.569Z,24.4
2022-12-12T09:46:32.368Z,25.5
2022-12-12T09:52:14.380Z,26.8
2022-12-12T09:57:52.232Z,26.9
2022-12-12T10:03:36.966Z,25.7
2022-12-12T10:09:48.540Z,25.1
2022-12-12T10:15:29.043Z,24.4
2022-12-12T10:21:08.236Z,24.1
2022-12-12T10:26:50.475Z,24.5
2022-12-12T10:32:29.632Z,26.2
2022-12-12T10:38:13.426Z,27.1
2022-12-12T10:43:52.746Z,26.9
2022-12-12T10:49:31.773Z,25.4
2022-12-12T10:55:12.557Z,24.9
2022-12-12T11:00:56.909Z,24.3
2022-12-12T11:07:10.704Z,24.1
2022-12-12T11:12:48.808Z,25.2
2022-12-12T11:18:27.849Z,26.8
2022-12-12T11:24:08.035Z,27.1
2022-12-12T11:29:46.902Z,26.1
2022-12-12T11:35:09.496Z,25.2
2022-12-12T11:40:48.110Z,24.7
2022-12-12T11:46:32.796Z,24.3
2022-12-12T11:52:10.586Z,24.4
2022-12-12T11:57:49.113Z,25.8
2022-12-12T12:03:27.272Z,26.9
2022-12-12T12:09:06.211Z,27.1
2022-12-12T12:14:49.999Z,25.8
2022-12-12T12:20:28.106Z,25.1
2022-12-12T12:26:11.729Z,24.8
2022-12-12T12:31:50.158Z,24.4
2022-12-12T12:37:12.726Z,24.1
2022-12-12T12:42:50.804Z,23.8
2022-12-12T12:48:28.960Z,23.6
2022-12-12T12:54:07.966Z,23.3
2022-12-12T12:59:31.049Z,23.1
2022-12-12T13:05:14.195Z,22.8
2022-12-12T13:10:56.121Z,22.6
2022-12-12T13:16:34.108Z,22.4
2022-12-12T13:22:26.244Z,22.3
2022-12-12T13:28:04.401Z,22.1
2022-12-12T13:33:44.159Z,21.9
2022-12-12T13:39:28.163Z,21.8
2022-12-12T13:44:34.601Z,21.6
2022-12-12T13:50:13.600Z,21.4
2022-12-12T13:55:38.276Z,21.3
2022-12-12T14:01:16.385Z,21.3
2022-12-12T14:12:30.988Z,21.1
2022-12-12T14:17:59.819Z,20.9
2022-12-12T14:23:42.621Z,22.3
2022-12-12T14:29:23.905Z,24.4
2022-12-12T14:35:07.220Z,26.5
2022-12-12T14:40:49.607Z,27.4
2022-12-12T14:47:58.463Z,28
2022-12-12T14:53:42.713Z,28.3
2022-12-12T14:59:23.480Z,28.5
2022-12-12T15:05:05.100Z,28.5
2022-12-12T15:10:46.730Z,29.3
2022-12-12T15:16:24.614Z,29.8
2022-12-12T15:22:05.200Z,29.9
2022-12-12T15:27:11.518Z,29.7
2022-12-12T15:32:56.515Z,30.3
2022-12-12T15:38:34.773Z,30.6
2022-12-12T15:44:00.447Z,31
2022-12-12T15:49:38.726Z,31.2
2022-12-12T15:55:02.963Z,31.2
2022-12-12T16:00:47.420Z,31.3
2022-12-12T16:06:38.567Z,31.6
2022-12-12T16:12:08.328Z,31.8
2022-12-12T16:17:46.734Z,31.8
2022-12-12T16:23:29.468Z,31.8
2022-12-12T16:29:14.251Z,31.4
2022-12-12T16:34:36.586Z,31.4
2022-12-12T16:40:03.173Z,31.1
2022-12-12T16:45:42.108Z,30.9
2022-12-12T16:51:11.227Z,31.3
2022-12-12T16:56:34.211Z,31.7
2022-12-12T17:01:57.975Z,32.1
2022-12-12T17:07:21.058Z,32.3
2022-12-12T17:12:50.671Z,32.4
2022-12-12T17:18:29.003Z,32.6
2022-12-12T17:24:33.678Z,32.7
2022-12-12T17:30:14.041Z,32.7
2022-12-12T17:36:22.150Z,32.5
2022-12-12T17:41:49.180Z,32.6
2022-12-12T17:47:31.919Z,32.3
2022-12-12T17:53:12.277Z,32.6
2022-12-12T17:59:53.012Z,32.8
2022-12-12T18:05:02.077Z,33
2022-12-12T18:10:24.786Z,33.1
2022-12-12T18:15:53.394Z,33.1
2022-12-12T18:22:15.563Z,33.1
2022-12-12T18:28:00.303Z,33.1
2022-12-12T18:33:07.836Z,33.1
2022-12-12T18:38:30.077Z,33.1
2022-12-12T18:43:37.883Z,33.1
2022-12-12T18:49:00.061Z,32.9
2022-12-12T18:54:12.870Z,32.9
2022-12-12T18:59:37.391Z,32.8
2022-12-12T19:05:19.791Z,32.7
2022-12-12T19:10:57.919Z,32.5
2022-12-12T19:17:15.220Z,32.8
2022-12-12T19:23:02.842Z,32.8
2022-12-12T19:28:46.048Z,32.6
2022-12-12T19:34:13.397Z,32.7
2022-12-12T19:39:19.563Z,32.6
2022-12-12T19:44:43.640Z,32.8
2022-12-12T19:50:07.022Z,32.7
2022-12-12T19:55:19.608Z,32.9
2022-12-12T20:00:41.616Z,32.9
2022-12-12T20:06:10.050Z,32.9
2022-12-12T20:11:17.265Z,32.9
2022-12-12T20:17:07.015Z,32.8
2022-12-12T20:23:05.966Z,32.8
2022-12-12T20:28:30.757Z,33.1
2022-12-12T20:34:13.826Z,33.4
2022-12-12T20:39:52.411Z,33.6
2022-12-12T20:45:35.677Z,33.7
2022-12-12T20:51:31.251Z,33.7
2022-12-12T20:57:36.196Z,33.7
2022-12-12T21:02:47.014Z,33.6
2022-12-12T21:08:09.450Z,33.5
2022-12-12T21:13:36.387Z,33.5
2022-12-12T21:19:14.362Z,33.3
2022-12-12T21:24:52.504Z,32.9
2022-12-12T21:30:37.886Z,32.8
2022-12-12T21:36:18.663Z,32.4
2022-12-12T21:41:43.242Z,32.1
2022-12-12T21:47:21.986Z,31.8
2022-12-12T21:53:01.396Z,31.4
2022-12-12T21:58:30.221Z,31.1
2022-12-12T22:04:13.874Z,30.6
2022-12-12T22:09:57.297Z,29.9
2022-12-12T22:15:50.597Z,29.9
2022-12-12T22:21:19.425Z,29.5
2022-12-12T22:26:57.316Z,29.2
2022-12-12T22:32:20.059Z,28.9
2022-12-12T22:37:43.714Z,28.8
2022-12-12T22:43:05.963Z,28.4
2022-12-12T22:48:43.675Z,27.9
2022-12-12T22:54:06.316Z,27.8
2022-12-12T22:58:57.718Z,27.2
2022-12-12T23:04:23.433Z,27.8
2022-12-12T23:10:02.403Z,28.4
2022-12-12T23:15:40.840Z,29.2
2022-12-12T23:21:18.847Z,28.3
2022-12-12T23:26:25.896Z,27.6
2022-12-12T23:31:35.902Z,27.4
2022-12-12T23:36:58.507Z,26.8
2022-12-12T23:42:05.881Z,27.6
2022-12-12T23:47:28.799Z,28.5
2022-12-12T23:53:10.535Z,28.8
2022-12-12T23:58:33.363Z,27.9
